createdAt,value
2018-11-06T00:00:51.747Z,6.35
2018-11-06T00:03:26.869Z,5.00
2018-11-06T00:05:56.637Z,6.70
2018-11-06T00:08:26.393Z,6.25
2018-11-06T00:10:56.283Z,6.43
2018-11-06T00:13:26.047Z,6.55
2018-11-06T00:15:55.807Z,7.22
2018-11-06T00:18:25.667Z,9.70
2018-11-06T00:20:55.421Z,9.78
2018-11-06T00:23:25.160Z,10.65
2018-11-06T00:25:55.803Z,9.67
2018-11-06T00:28:25.583Z,9.20
2018-11-06T00:30:55.328Z,9.53
2018-11-06T00:33:25.136Z,9.48
2018-11-06T00:35:54.949Z,9.88
2018-11-06T00:38:24.665Z,9.18
2018-11-06T00:40:54.406Z,9.60
2018-11-06T00:43:24.156Z,9.68
2018-11-06T00:45:53.921Z,8.08
2018-11-06T00:48:23.638Z,8.35
2018-11-06T00:50:54.157Z,8.73
2018-11-06T00:53:23.906Z,8.25
2018-11-06T00:55:53.663Z,9.47
2018-11-06T00:58:23.353Z,9.23
2018-11-06T01:00:53.147Z,7.60
2018-11-06T01:03:27.095Z,9.43
2018-11-06T01:05:56.847Z,8.95
2018-11-06T01:08:26.623Z,8.00
2018-11-06T01:10:56.407Z,7.60
2018-11-06T01:13:26.119Z,7.85
2018-11-06T01:15:55.852Z,8.58
2018-11-06T01:18:25.572Z,7.17
2018-11-06T01:20:55.323Z,7.80
2018-11-06T01:23:25.015Z,7.75
2018-11-06T01:25:54.783Z,7.10
2018-11-06T01:28:24.501Z,7.30
2018-11-06T01:30:54.311Z,7.08
2018-11-06T01:33:23.995Z,7.50
2018-11-06T01:35:53.733Z,7.08
2018-11-06T01:38:23.501Z,6.50
2018-11-06T01:40:53.433Z,8.88
2018-11-06T01:43:23.260Z,9.38
2018-11-06T01:45:53.013Z,7.47
2018-11-06T01:48:22.731Z,8.40
2018-11-06T01:50:52.660Z,8.30
2018-11-06T01:53:23.025Z,8.63
2018-11-06T01:55:52.831Z,9.23
2018-11-06T01:58:22.518Z,9.83
2018-11-06T02:00:52.291Z,7.58
2018-11-06T02:03:22.040Z,7.85
2018-11-06T02:05:51.801Z,9.00
2018-11-06T02:08:21.761Z,8.13
2018-11-06T02:10:51.498Z,7.30
2018-11-06T02:13:21.212Z,8.30
2018-11-06T02:15:50.953Z,7.20
2018-11-06T02:18:20.691Z,8.15
2018-11-06T02:20:50.450Z,7.17
2018-11-06T02:23:20.251Z,7.65
2018-11-06T02:25:49.998Z,7.80
2018-11-06T02:28:19.719Z,7.15
2018-11-06T02:30:51.054Z,7.60
2018-11-06T02:33:20.850Z,6.67
2018-11-06T02:35:50.596Z,6.92
2018-11-06T02:38:20.551Z,6.87
2018-11-06T02:40:50.270Z,7.30
2018-11-06T02:43:20.098Z,6.80
2018-11-06T02:45:49.846Z,6.45
2018-11-06T02:48:19.570Z,6.53
2018-11-06T02:50:49.316Z,7.35
2018-11-06T02:53:19.007Z,6.85
2018-11-06T02:55:48.763Z,6.33
2018-11-06T02:58:18.456Z,6.03
2018-11-06T03:00:48.197Z,6.05
2018-11-06T03:03:17.894Z,6.60
2018-11-06T03:05:47.606Z,6.50
2018-11-06T03:08:17.369Z,6.00
2018-11-06T03:10:47.129Z,6.90
2018-11-06T03:13:16.874Z,6.62
2018-11-06T03:15:46.578Z,5.97
2018-11-06T03:18:16.306Z,5.15
2018-11-06T03:20:46.102Z,5.60
2018-11-06T03:23:15.828Z,6.50
2018-11-06T03:25:45.522Z,6.77
2018-11-06T03:28:15.220Z,7.03
2018-11-06T03:30:44.970Z,6.60
2018-11-06T03:33:14.704Z,6.15
2018-11-06T03:35:44.426Z,6.05
2018-11-06T03:38:14.172Z,6.10
2018-11-06T03:40:43.878Z,5.10
2018-11-06T03:43:13.621Z,5.50
2018-11-06T03:45:43.378Z,4.42
2018-11-06T03:48:13.137Z,5.05
2018-11-06T03:50:42.884Z,3.90
2018-11-06T03:53:12.584Z,3.92
2018-11-06T03:55:42.320Z,4.47
2018-11-06T03:58:12.014Z,4.45
2018-11-06T04:00:41.754Z,4.28
2018-11-06T04:03:11.457Z,4.37
2018-11-06T04:05:41.154Z,4.33
2018-11-06T04:08:10.831Z,4.30
2018-11-06T04:10:40.562Z,4.23
2018-11-06T04:13:10.360Z,5.53
2018-11-06T04:15:40.027Z,5.42
2018-11-06T04:18:09.770Z,4.80
2018-11-06T04:20:39.498Z,4.65
2018-11-06T04:23:09.174Z,4.55
2018-11-06T04:25:38.914Z,4.30
2018-11-06T04:28:08.577Z,4.47
2018-11-06T04:30:38.302Z,4.03
2018-11-06T04:33:07.991Z,5.17
2018-11-06T04:35:37.743Z,4.00
2018-11-06T04:38:07.456Z,4.25
2018-11-06T04:40:37.111Z,4.37
2018-11-06T04:43:07.100Z,3.87
2018-11-06T04:45:36.773Z,3.80
2018-11-06T04:48:06.681Z,3.75
2018-11-06T04:50:36.395Z,3.40
2018-11-06T04:53:06.152Z,3.75
2018-11-06T04:55:35.859Z,3.50
2018-11-06T04:58:05.641Z,3.02
2018-11-06T05:00:35.369Z,3.85
2018-11-06T05:03:05.185Z,3.65
2018-11-06T05:05:34.893Z,3.00
2018-11-06T05:08:04.619Z,3.20
2018-11-06T05:10:34.419Z,3.47
2018-11-06T05:13:04.105Z,2.92
2018-11-06T05:15:33.819Z,2.90
2018-11-06T05:18:03.549Z,3.45
2018-11-06T05:20:33.328Z,2.95
2018-11-06T05:23:03.048Z,3.02
2018-11-06T05:25:33.165Z,2.73
2018-11-06T05:28:02.877Z,2.90
2018-11-06T05:30:32.653Z,2.35
2018-11-06T05:33:02.537Z,3.00
2018-11-06T05:35:32.225Z,2.52
2018-11-06T05:38:01.915Z,2.72
2018-11-06T05:40:42.881Z,3.00
2018-11-06T05:43:12.639Z,2.62
2018-11-06T05:45:42.382Z,2.77
2018-11-06T05:48:12.238Z,2.35
2018-11-06T05:50:42.134Z,2.00
2018-11-06T05:53:11.901Z,2.40
2018-11-06T05:55:41.792Z,1.70
2018-11-06T05:58:11.587Z,2.40
2018-11-06T06:00:41.453Z,2.12
2018-11-06T06:03:11.176Z,2.10
2018-11-06T06:05:40.895Z,2.15
2018-11-06T06:08:10.643Z,2.05
2018-11-06T06:10:40.351Z,2.63
2018-11-06T06:13:10.104Z,2.98
2018-11-06T06:15:39.837Z,2.80
2018-11-06T06:18:09.568Z,2.62
2018-11-06T06:20:39.317Z,2.87
2018-11-06T06:23:09.041Z,2.75
2018-11-06T06:25:38.757Z,3.47
2018-11-06T06:28:08.547Z,3.22
2018-11-06T06:30:38.299Z,3.40
2018-11-06T06:33:08.063Z,3.22
2018-11-06T06:35:37.850Z,3.00
2018-11-06T06:38:07.613Z,3.15
2018-11-06T06:40:37.425Z,3.37
2018-11-06T06:43:07.145Z,3.45
2018-11-06T06:45:36.907Z,2.50
2018-11-06T06:48:06.605Z,2.95
2018-11-06T06:50:36.322Z,3.42
2018-11-06T06:53:06.140Z,3.50
2018-11-06T06:55:35.857Z,3.13
2018-11-06T06:58:05.647Z,3.85
2018-11-06T07:00:35.375Z,2.95
2018-11-06T07:03:05.150Z,3.12
2018-11-06T07:05:34.957Z,3.22
2018-11-06T07:08:05.234Z,4.15
2018-11-06T07:10:35.476Z,4.67
2018-11-06T07:13:05.432Z,4.67
2018-11-06T07:15:35.091Z,4.75
2018-11-06T07:18:05.047Z,4.22
2018-11-06T07:20:34.803Z,3.50
2018-11-06T07:23:04.765Z,3.95
2018-11-06T07:25:34.485Z,3.90
2018-11-06T07:28:04.243Z,4.00
2018-11-06T07:30:34.131Z,4.22
2018-11-06T07:33:03.889Z,3.25
2018-11-06T07:35:33.666Z,4.60
2018-11-06T07:38:03.323Z,3.95
2018-11-06T07:40:33.144Z,3.83
2018-11-06T07:43:02.840Z,4.62
2018-11-06T07:45:32.572Z,4.00
2018-11-06T07:48:02.395Z,3.70
2018-11-06T07:50:32.195Z,4.10
2018-11-06T07:53:01.879Z,4.35
2018-11-06T07:55:31.665Z,4.07
2018-11-06T07:58:01.405Z,4.12
2018-11-06T08:00:32.176Z,3.55
2018-11-06T08:03:01.955Z,3.60
2018-11-06T08:05:31.707Z,3.60
2018-11-06T08:08:01.505Z,3.15
2018-11-06T08:10:31.236Z,3.20
2018-11-06T08:13:01.067Z,3.30
2018-11-06T08:15:30.802Z,3.00
2018-11-06T08:18:03.208Z,4.28
2018-11-06T08:20:33.001Z,5.40
2018-11-06T08:23:02.747Z,4.17
2018-11-06T08:25:32.506Z,5.60
2018-11-06T08:28:02.294Z,4.70
2018-11-06T08:30:32.095Z,4.20
2018-11-06T08:33:01.797Z,3.07
2018-11-06T08:35:31.532Z,3.10
2018-11-06T08:38:01.318Z,3.23
2018-11-06T08:40:31.114Z,4.57
2018-11-06T08:43:00.849Z,3.40
2018-11-06T08:45:30.617Z,2.50
2018-11-06T08:48:00.298Z,2.60
2018-11-06T08:50:30.022Z,3.10
2018-11-06T08:52:59.725Z,3.13
2018-11-06T08:55:29.452Z,2.67
2018-11-06T08:57:59.187Z,2.40
2018-11-06T09:00:28.946Z,2.10
2018-11-06T09:02:58.746Z,2.40
2018-11-06T09:05:28.434Z,2.20
2018-11-06T09:07:58.150Z,2.00
2018-11-06T09:10:27.945Z,1.63
2018-11-06T09:12:57.636Z,1.97
2018-11-06T09:15:27.503Z,1.40
2018-11-06T09:17:57.402Z,2.00
2018-11-06T09:20:27.152Z,2.23
2018-11-06T09:22:57.689Z,1.90
2018-11-06T09:25:27.551Z,2.00
2018-11-06T09:27:57.848Z,1.30
2018-11-06T09:30:27.604Z,1.57
2018-11-06T09:32:57.326Z,1.67
2018-11-06T09:35:27.002Z,1.10
2018-11-06T09:37:56.790Z,1.50
2018-11-06T09:40:26.502Z,2.00
2018-11-06T09:42:56.227Z,1.50
2018-11-06T09:45:25.974Z,1.43
2018-11-06T09:47:55.656Z,1.90
2018-11-06T09:50:25.444Z,2.03
2018-11-06T09:52:55.170Z,1.60
2018-11-06T09:55:25.146Z,1.77
2018-11-06T09:57:54.916Z,1.47
2018-11-06T10:00:24.745Z,1.00
2018-11-06T10:02:54.477Z,1.40
2018-11-06T10:05:24.218Z,2.07
2018-11-06T10:07:54.147Z,1.43
2018-11-06T10:10:23.784Z,1.40
2018-11-06T10:12:53.526Z,1.33
2018-11-06T10:15:23.223Z,1.27
2018-11-06T10:17:52.970Z,1.33
2018-11-06T10:20:22.670Z,1.10
2018-11-06T10:22:52.415Z,1.30
2018-11-06T10:25:22.190Z,1.30
2018-11-06T10:27:51.931Z,1.10
2018-11-06T10:30:21.648Z,1.40
2018-11-06T10:32:51.398Z,1.03
2018-11-06T10:35:21.224Z,1.13
2018-11-06T10:37:51.052Z,1.07
2018-11-06T10:40:21.884Z,1.17
2018-11-06T10:42:51.890Z,1.00
2018-11-06T10:45:21.674Z,1.20
2018-11-06T10:47:51.383Z,1.10
2018-11-06T10:50:21.139Z,0.90
2018-11-06T10:52:50.942Z,1.00
2018-11-06T10:55:20.746Z,1.27
2018-11-06T10:57:50.475Z,1.17
2018-11-06T11:00:25.546Z,1.20
2018-11-06T11:03:00.774Z,1.63
2018-11-06T11:05:30.947Z,1.13
2018-11-06T11:08:00.677Z,1.70
2018-11-06T11:10:30.543Z,1.40
2018-11-06T11:13:00.277Z,1.50
2018-11-06T11:15:29.996Z,1.23
2018-11-06T11:17:59.699Z,1.93
2018-11-06T11:20:29.450Z,1.53
2018-11-06T11:22:59.199Z,1.80
2018-11-06T11:25:28.995Z,1.00
2018-11-06T11:27:58.698Z,1.10
2018-11-06T11:30:28.503Z,1.50
2018-11-06T11:32:58.318Z,1.30
2018-11-06T11:35:28.084Z,1.60
2018-11-06T11:37:57.745Z,1.30
2018-11-06T11:40:27.490Z,1.30
2018-11-06T11:42:57.300Z,1.17
2018-11-06T11:45:27.055Z,1.30
2018-11-06T11:47:56.802Z,1.13
2018-11-06T11:50:26.474Z,1.37
2018-11-06T11:52:56.191Z,1.00
2018-11-06T11:55:25.934Z,1.10
2018-11-06T11:57:55.655Z,0.97
2018-11-06T12:00:28.298Z,1.50
2018-11-06T12:02:58.247Z,1.27
2018-11-06T12:05:28.368Z,1.27
2018-11-06T12:08:00.911Z,0.93
2018-11-06T12:10:30.744Z,1.37
2018-11-06T12:13:01.717Z,1.37
2018-11-06T12:15:31.469Z,1.40
2018-11-06T12:18:01.181Z,1.10
2018-11-06T12:20:30.912Z,1.27
2018-11-06T12:23:00.691Z,1.20
2018-11-06T12:25:30.558Z,1.30
2018-11-06T12:28:00.197Z,1.53
2018-11-06T12:30:29.930Z,1.50
2018-11-06T12:32:59.731Z,0.80
2018-11-06T12:35:29.463Z,1.10
2018-11-06T12:37:59.243Z,1.23
2018-11-06T12:40:29.099Z,1.60
2018-11-06T12:42:58.870Z,1.13
2018-11-06T12:45:28.555Z,1.30
2018-11-06T12:47:58.278Z,1.37
2018-11-06T12:50:28.197Z,1.50
2018-11-06T12:52:58.094Z,1.70
2018-11-06T12:55:27.785Z,1.27
2018-11-06T12:57:57.499Z,1.20
2018-11-06T13:00:27.227Z,0.87
2018-11-06T13:02:56.927Z,1.60
2018-11-06T13:05:26.663Z,1.40
2018-11-06T13:07:56.367Z,1.20
2018-11-06T13:10:26.173Z,1.30
2018-11-06T13:12:55.950Z,1.30
2018-11-06T13:15:25.761Z,1.30
2018-11-06T13:17:55.555Z,1.10
2018-11-06T13:20:25.490Z,1.40
2018-11-06T13:22:55.447Z,1.30
2018-11-06T13:25:25.219Z,1.03
2018-11-06T13:27:55.098Z,1.00
2018-11-06T13:30:24.850Z,0.93
2018-11-06T13:32:55.167Z,1.10
2018-11-06T13:35:24.989Z,1.07
2018-11-06T13:37:54.769Z,1.40
2018-11-06T13:40:24.489Z,1.00
2018-11-06T13:42:54.392Z,1.30
2018-11-06T13:45:25.219Z,1.10
2018-11-06T13:47:54.923Z,1.23
2018-11-06T13:50:24.818Z,1.27
2018-11-06T13:52:54.611Z,1.13
2018-11-06T13:55:24.391Z,1.03
2018-11-06T13:57:54.953Z,1.20
2018-11-06T14:00:24.684Z,1.40
2018-11-06T14:02:54.403Z,0.80
2018-11-06T14:05:24.141Z,1.00
2018-11-06T14:07:53.894Z,1.00
2018-11-06T14:10:23.684Z,1.70
2018-11-06T14:12:53.584Z,1.10
2018-11-06T14:15:23.314Z,1.20
2018-11-06T14:17:53.143Z,1.20
2018-11-06T14:20:23.028Z,0.97
2018-11-06T14:22:52.776Z,1.27
2018-11-06T14:25:22.538Z,1.40
2018-11-06T14:27:52.215Z,2.00
2018-11-06T14:30:21.996Z,1.90
2018-11-06T14:32:52.426Z,2.07
2018-11-06T14:35:22.095Z,1.40
2018-11-06T14:37:51.951Z,1.10
2018-11-06T14:40:21.774Z,1.30
2018-11-06T14:42:51.533Z,1.40
2018-11-06T14:45:21.200Z,2.20
2018-11-06T14:47:51.072Z,1.77
2018-11-06T14:50:20.762Z,2.10
2018-11-06T14:52:50.588Z,2.23
2018-11-06T14:55:21.222Z,2.00
2018-11-06T14:57:51.015Z,3.07
2018-11-06T15:00:21.597Z,2.30
2018-11-06T15:02:52.574Z,2.57
2018-11-06T15:05:23.004Z,2.83
2018-11-06T15:07:52.780Z,2.37
2018-11-06T15:10:22.598Z,2.70
2018-11-06T15:12:52.363Z,5.60
2018-11-06T15:15:22.098Z,6.27
2018-11-06T15:17:51.869Z,4.40
2018-11-06T15:20:22.460Z,5.10
2018-11-06T15:22:52.201Z,6.37
2018-11-06T15:25:21.947Z,6.00
2018-11-06T15:27:51.687Z,6.37
2018-11-06T15:30:21.526Z,5.83
2018-11-06T15:32:51.354Z,5.80
2018-11-06T15:35:21.728Z,5.70
2018-11-06T15:37:51.522Z,5.40
2018-11-06T15:40:21.946Z,8.93
2018-11-06T15:42:51.716Z,9.53
2018-11-06T15:45:21.534Z,5.27
2018-11-06T15:47:51.326Z,4.30
2018-11-06T15:50:21.511Z,5.40
2018-11-06T15:52:51.727Z,4.67
2018-11-06T15:55:21.437Z,3.23
2018-11-06T15:57:51.355Z,2.90
2018-11-06T16:00:22.554Z,2.17
2018-11-06T16:02:52.737Z,2.30
2018-11-06T16:05:22.484Z,2.60
2018-11-06T16:07:52.238Z,2.60
2018-11-06T16:10:23.123Z,2.70
2018-11-06T16:12:52.962Z,3.47
2018-11-06T16:15:22.831Z,2.63
2018-11-06T16:17:52.467Z,2.53
2018-11-06T16:20:22.319Z,2.60
2018-11-06T16:22:52.027Z,2.10
2018-11-06T16:25:21.870Z,2.40
2018-11-06T16:27:51.601Z,2.80
2018-11-06T16:30:22.460Z,2.50
2018-11-06T16:32:52.246Z,2.70
2018-11-06T16:35:23.044Z,2.60
2018-11-06T16:37:53.214Z,2.70
2018-11-06T16:40:23.008Z,3.17
2018-11-06T16:42:52.840Z,2.80
2018-11-06T16:45:23.763Z,3.13
2018-11-06T16:47:54.279Z,3.40
2018-11-06T16:50:24.931Z,3.50
2018-11-06T16:52:54.799Z,3.03
2018-11-06T16:55:24.603Z,3.13
2018-11-06T16:57:54.671Z,3.50
2018-11-06T17:00:26.003Z,3.60
2018-11-06T17:02:55.691Z,3.50
2018-11-06T17:05:25.356Z,4.43
2018-11-06T17:07:55.134Z,4.00
2018-11-06T17:10:24.866Z,3.67
2018-11-06T17:12:54.612Z,4.83
2018-11-06T17:15:24.877Z,4.30
2018-11-06T17:17:55.036Z,4.40
2018-11-06T17:20:24.734Z,8.43
2018-11-06T17:22:54.584Z,20.57
2018-11-06T17:25:24.512Z,14.87
2018-11-06T17:27:54.465Z,7.83
2018-11-06T17:30:24.538Z,8.93
2018-11-06T17:32:54.428Z,14.77
2018-11-06T17:35:24.279Z,16.07
2018-11-06T17:37:54.173Z,33.00
2018-11-06T17:40:24.693Z,28.20
2018-11-06T17:42:54.646Z,23.37
2018-11-06T17:45:24.944Z,24.37
2018-11-06T17:47:54.807Z,27.80
2018-11-06T17:50:24.544Z,26.30
2018-11-06T17:52:54.577Z,18.40
2018-11-06T17:55:25.104Z,14.33
2018-11-06T17:57:55.349Z,14.07
2018-11-06T18:00:25.295Z,10.00
2018-11-06T18:02:55.092Z,11.67
2018-11-06T18:05:25.864Z,11.30
2018-11-06T18:07:55.783Z,9.60
2018-11-06T18:10:25.703Z,10.57
2018-11-06T18:12:56.392Z,9.33
2018-11-06T18:15:26.133Z,9.67
2018-11-06T18:17:56.223Z,8.83
2018-11-06T18:20:25.964Z,8.57
2018-11-06T18:22:55.756Z,8.40
2018-11-06T18:25:25.596Z,8.60
2018-11-06T18:27:55.962Z,9.10
2018-11-06T18:30:26.323Z,6.17
2018-11-06T18:32:56.058Z,5.47
2018-11-06T18:35:26.075Z,4.60
2018-11-06T18:37:55.887Z,4.50
2018-11-06T18:40:25.672Z,4.87
2018-11-06T18:42:55.600Z,3.97
2018-11-06T18:45:25.543Z,5.10
2018-11-06T18:47:55.488Z,5.60
2018-11-06T18:50:25.292Z,4.47
2018-11-06T18:52:55.208Z,4.47
2018-11-06T18:55:25.026Z,4.07
2018-11-06T18:57:54.877Z,4.10
2018-11-06T19:00:24.996Z,3.57
2018-11-06T19:02:55.460Z,3.33
2018-11-06T19:05:25.686Z,3.47
2018-11-06T19:07:55.700Z,4.10
2018-11-06T19:10:25.617Z,3.77
2018-11-06T19:12:55.522Z,3.50
2018-11-06T19:15:25.811Z,3.73
2018-11-06T19:17:55.747Z,3.60
2018-11-06T19:20:25.674Z,8.97
2018-11-06T19:22:55.520Z,5.70
2018-11-06T19:25:25.403Z,4.47
2018-11-06T19:27:55.218Z,3.77
2018-11-06T19:30:25.092Z,4.40
2018-11-06T19:32:54.974Z,4.63
2018-11-06T19:35:24.777Z,4.73
2018-11-06T19:37:54.550Z,4.97
2018-11-06T19:40:24.587Z,5.03
2018-11-06T19:42:54.398Z,4.40
2018-11-06T19:45:24.191Z,4.60
2018-11-06T19:47:54.074Z,4.77
2018-11-06T19:50:23.860Z,4.03
2018-11-06T19:52:53.858Z,3.90
2018-11-06T19:55:23.555Z,4.33
2018-11-06T19:57:53.469Z,14.97
2018-11-06T20:00:23.978Z,7.70
2018-11-06T20:02:54.595Z,6.40
2018-11-06T20:05:24.486Z,4.10
2018-11-06T20:07:55.147Z,3.33
2018-11-06T20:10:26.029Z,3.53
2018-11-06T20:12:56.359Z,3.30
2018-11-06T20:15:26.424Z,4.33
2018-11-06T20:17:56.325Z,3.70
2018-11-06T20:20:27.159Z,3.60
2018-11-06T20:22:56.950Z,3.63
2018-11-06T20:25:26.938Z,4.57
2018-11-06T20:27:57.698Z,7.20
2018-11-06T20:30:28.150Z,8.20
2018-11-06T20:32:58.113Z,8.80
2018-11-06T20:35:28.752Z,6.70
2018-11-06T20:37:58.708Z,8.00
2018-11-06T20:40:28.712Z,5.80
2018-11-06T20:42:59.615Z,10.53
2018-11-06T20:45:29.444Z,7.57
2018-11-06T20:47:59.258Z,7.83
2018-11-06T20:50:29.448Z,7.20
2018-11-06T20:52:59.681Z,7.10
2018-11-06T20:55:29.620Z,7.40
2018-11-06T20:57:59.423Z,4.60
2018-11-06T21:00:30.088Z,6.73
2018-11-06T21:03:01.245Z,8.93
2018-11-06T21:05:31.949Z,8.93
2018-11-06T21:08:01.879Z,9.30
2018-11-06T21:10:32.210Z,6.50
2018-11-06T21:13:02.856Z,8.80
2018-11-06T21:15:32.725Z,6.20
2018-11-06T21:18:02.889Z,5.47
2018-11-06T21:20:32.598Z,5.47
2018-11-06T21:23:02.440Z,6.20
2018-11-06T21:25:32.563Z,5.40
2018-11-06T21:28:02.417Z,6.83
2018-11-06T21:30:32.263Z,5.87
2018-11-06T21:33:02.082Z,5.97
2018-11-06T21:35:31.998Z,8.50
2018-11-06T21:38:01.958Z,9.00
2018-11-06T21:40:31.910Z,7.77
2018-11-06T21:43:01.909Z,7.50
2018-11-06T21:45:31.933Z,6.93
2018-11-06T21:48:01.752Z,6.73
2018-11-06T21:50:31.683Z,6.90
2018-11-06T21:53:02.660Z,7.03
2018-11-06T21:55:32.687Z,7.10
2018-11-06T21:58:02.558Z,6.93
2018-11-06T22:00:32.494Z,6.40
2018-11-06T22:03:02.939Z,6.93
2018-11-06T22:05:33.802Z,6.67
2018-11-06T22:08:04.632Z,7.80
2018-11-06T22:10:34.547Z,7.57
2018-11-06T22:13:04.409Z,7.13
2018-11-06T22:15:34.178Z,7.33
2018-11-06T22:18:04.251Z,7.00
2018-11-06T22:20:34.051Z,8.35
2018-11-06T22:23:03.851Z,7.03
2018-11-06T22:25:33.591Z,7.23
2018-11-06T22:28:03.427Z,7.10
2018-11-06T22:30:33.201Z,7.60
2018-11-06T22:33:03.989Z,7.37
2018-11-06T22:35:33.699Z,6.87
2018-11-06T22:38:03.981Z,6.93
2018-11-06T22:40:33.954Z,7.67
2018-11-06T22:43:03.693Z,7.00
2018-11-06T22:45:33.499Z,6.77
2018-11-06T22:48:03.262Z,7.07
2018-11-06T22:50:33.575Z,7.50
2018-11-06T22:53:03.319Z,8.03
2018-11-06T22:55:33.093Z,7.47
2018-11-06T22:58:02.955Z,7.63
2018-11-06T23:00:38.095Z,8.63
2018-11-06T23:03:13.142Z,8.47
2018-11-06T23:05:42.969Z,8.50
2018-11-06T23:08:18.041Z,8.63
2018-11-06T23:10:47.882Z,7.40
2018-11-06T23:13:17.571Z,9.80
2018-11-06T23:18:58.025Z,8.77
2018-11-06T23:21:27.831Z,7.80
2018-11-06T23:23:57.863Z,7.70
2018-11-06T23:26:28.391Z,10.83
2018-11-06T23:28:58.085Z,8.03
2018-11-06T23:31:27.822Z,10.83
2018-11-06T23:33:57.527Z,14.63
2018-11-06T23:36:28.407Z,12.77
2018-11-06T23:38:58.167Z,8.03
2018-11-06T23:41:27.845Z,7.30
2018-11-06T23:43:57.625Z,7.40
2018-11-06T23:46:27.416Z,7.93
2018-11-06T23:48:57.076Z,7.93
2018-11-06T23:51:26.822Z,7.43
2018-11-06T23:53:56.574Z,7.93
2018-11-06T23:56:26.290Z,7.50
2018-11-06T23:58:56.365Z,7.67
